Denver, Colorado
Traffic Map
Current Weather Conditions
Denver, Colorado
Clear
Clear
48°
Feels Like: 46°
Wind Chill: 46° Ceiling: Unl
Heat Index: 48° Visibility: 50mi
Dew Point: Wind: 5mph
Humidity: 13% Direction: 130° (SE)
Pressure: 30.28in Gusts: 0mph
Raw Report DataKBJC 171947Z 13004KT 50SM SKC 09/M18 A3028
Traffic Incident Summary
Active as of:
Severity:
Category:
InformationThere was an issue retrieving the traffic information for this location. Please try a different location or try again shortly.
Advertisements